Time;durP1;ratioP1;P1;durP2;ratioP2;P2;SDS_P1;SDS_P2;PMS_P1;PMS_P2;Temp;Humidity;BMP_temperature;BMP_pressure;BME280_temperature;BME280_humidity;BME280_pressure;Samples;Min_cycle;Max_cycle;Signal;HPM_P1;HPM_P2
2022/03/01 00:00:42;;;;;;;18.23;12.20;;;;;;;;;;4988939;28;20330;-57
2022/03/01 00:03:07;;;;;;;18.77;11.10;;;;;;;;;;4986181;28;20103;-55
2022/03/01 00:05:32;;;;;;;17.03;10.83;;;;;;;;;;4990455;28;20267;-56
2022/03/01 00:07:58;;;;;;;15.73;9.83;;;;;;;;;;4994511;28;20086;-57
2022/03/01 00:10:23;;;;;;;17.20;11.17;;;;;;;;;;4998592;28;20187;-55
2022/03/01 00:12:48;;;;;;;20.43;11.77;;;;;;;;;;4986100;28;20427;-56
2022/03/01 00:15:13;;;;;;;16.33;10.03;;;;;;;;;;4989926;28;20342;-56
2022/03/01 00:17:39;;;;;;;16.03;11.20;;;;;;;;;;4984048;28;20151;-55
2022/03/01 00:20:04;;;;;;;18.30;11.23;;;;;;;;;;4989485;28;20112;-59
2022/03/01 00:22:29;;;;;;;16.80;11.32;;;;;;;;;;4990361;28;20672;-59
2022/03/01 00:24:54;;;;;;;18.17;11.00;;;;;;;;;;4987145;28;20090;-58
2022/03/01 00:27:20;;;;;;;19.00;11.13;;;;;;;;;;4984451;28;20110;-59
2022/03/01 00:29:45;;;;;;;19.03;11.30;;;;;;;;;;4989519;28;20082;-58
2022/03/01 00:32:10;;;;;;;21.50;12.53;;;;;;;;;;4991338;28;20110;-59
2022/03/01 00:34:35;;;;;;;15.85;10.32;;;;;;;;;;4985768;28;20098;-58
2022/03/01 00:37:01;;;;;;;23.15;12.57;;;;;;;;;;5003332;28;20132;-58
2022/03/01 00:39:26;;;;;;;14.20;8.37;;;;;;;;;;4995754;28;20591;-57
2022/03/01 00:41:51;;;;;;;18.37;10.67;;;;;;;;;;4984790;28;20520;-58
2022/03/01 00:44:16;;;;;;;18.77;11.60;;;;;;;;;;4989316;28;20102;-58
2022/03/01 00:46:41;;;;;;;18.83;12.20;;;;;;;;;;4987559;28;20098;-58
2022/03/01 00:49:07;;;;;;;17.53;10.43;;;;;;;;;;4999707;28;20132;-59
2022/03/01 00:51:32;;;;;;;18.77;11.35;;;;;;;;;;4984775;28;20103;-60
2022/03/01 00:53:57;;;;;;;20.43;12.60;;;;;;;;;;4998488;28;20549;-59
2022/03/01 00:56:23;;;;;;;22.93;12.47;;;;;;;;;;4988982;28;20102;-58
2022/03/01 00:58:48;;;;;;;17.90;10.87;;;;;;;;;;4984218;28;20565;-59
2022/03/01 01:01:13;;;;;;;17.87;11.47;;;;;;;;;;4985339;28;20388;-59
2022/03/01 01:03:38;;;;;;;16.13;9.98;;;;;;;;;;5002252;28;20110;-58
2022/03/01 01:06:04;;;;;;;18.80;10.97;;;;;;;;;;4991564;28;20095;-57
2022/03/01 01:08:29;;;;;;;20.20;12.40;;;;;;;;;;4990028;28;20388;-59
2022/03/01 01:10:54;;;;;;;18.67;11.73;;;;;;;;;;4983994;28;20347;-58
2022/03/01 01:13:19;;;;;;;20.27;12.97;;;;;;;;;;4985787;28;20114;-59
2022/03/01 01:15:44;;;;;;;20.27;12.40;;;;;;;;;;4994054;28;20356;-58
2022/03/01 01:18:10;;;;;;;22.33;13.17;;;;;;;;;;4995228;28;20325;-60
2022/03/01 01:20:35;;;;;;;23.30;13.67;;;;;;;;;;4982381;28;20082;-57
2022/03/01 01:23:00;;;;;;;19.42;13.27;;;;;;;;;;4997359;28;20681;-60
2022/03/01 01:25:26;;;;;;;19.63;12.87;;;;;;;;;;4984363;28;20078;-59
2022/03/01 01:27:52;;;;;;;19.50;10.30;;;;;;;;;;4985880;28;20114;-59
2022/03/01 01:30:18;;;;;;;23.17;14.52;;;;;;;;;;4990024;28;20315;-58
2022/03/01 01:32:44;;;;;;;22.23;13.45;;;;;;;;;;4990028;28;20071;-55
2022/03/01 01:35:10;;;;;;;22.42;13.45;;;;;;;;;;4983206;28;20484;-55
2022/03/01 01:37:35;;;;;;;21.42;13.07;;;;;;;;;;4997470;28;20534;-57
2022/03/01 01:40:00;;;;;;;21.92;13.38;;;;;;;;;;4992438;28;20113;-56
2022/03/01 01:42:25;;;;;;;18.02;11.25;;;;;;;;;;4989890;28;20359;-54
2022/03/01 01:44:51;;;;;;;18.27;11.63;;;;;;;;;;4985082;28;20150;-57
2022/03/01 01:47:16;;;;;;;24.67;14.17;;;;;;;;;;4987061;28;20576;-55
2022/03/01 01:49:41;;;;;;;21.00;11.80;;;;;;;;;;4997385;28;20093;-54
2022/03/01 01:52:06;;;;;;;22.60;13.40;;;;;;;;;;4998160;28;20202;-55
2022/03/01 01:54:32;;;;;;;21.02;12.25;;;;;;;;;;4993828;28;20110;-56
2022/03/01 01:56:57;;;;;;;22.83;13.23;;;;;;;;;;4996928;28;20070;-56
2022/03/01 01:59:22;;;;;;;19.93;11.77;;;;;;;;;;4993158;28;20562;-55
2022/03/01 02:01:47;;;;;;;20.27;11.23;;;;;;;;;;4997436;28;20124;-56
2022/03/01 02:04:13;;;;;;;22.25;13.00;;;;;;;;;;4995102;28;20122;-56
2022/03/01 02:06:48;;;;;;;19.23;10.87;;;;;;;;;;4998613;28;20572;-57
2022/03/01 02:09:13;;;;;;;15.63;8.82;;;;;;;;;;4998969;28;20538;-55
2022/03/01 02:11:39;;;;;;;20.87;11.93;;;;;;;;;;5000386;28;20103;-55
2022/03/01 02:14:04;;;;;;;21.00;12.73;;;;;;;;;;4995460;28;20132;-57
2022/03/01 02:16:29;;;;;;;17.27;10.73;;;;;;;;;;4998520;28;20113;-57
2022/03/01 02:18:54;;;;;;;19.87;11.07;;;;;;;;;;4999298;28;20094;-57
2022/03/01 02:21:19;;;;;;;16.77;10.33;;;;;;;;;;5000085;28;20575;-56
2022/03/01 02:23:45;;;;;;;19.53;11.77;;;;;;;;;;4997188;28;20368;-58
2022/03/01 02:26:10;;;;;;;23.13;13.13;;;;;;;;;;4997739;28;20078;-60
2022/03/01 02:28:35;;;;;;;22.23;12.40;;;;;;;;;;4996935;28;20059;-57
2022/03/01 02:31:00;;;;;;;20.57;12.63;;;;;;;;;;4999205;28;20311;-57
2022/03/01 02:33:25;;;;;;;19.67;11.60;;;;;;;;;;5000096;28;20568;-58
2022/03/01 02:35:51;;;;;;;20.87;12.00;;;;;;;;;;4996551;28;20137;-59
2022/03/01 02:38:16;;;;;;;19.43;11.50;;;;;;;;;;4994641;28;20124;-60
2022/03/01 02:40:41;;;;;;;16.63;11.37;;;;;;;;;;4998911;28;20084;-57
2022/03/01 02:43:07;;;;;;;19.27;11.27;;;;;;;;;;4996094;28;20099;-57
2022/03/01 02:45:32;;;;;;;16.73;10.77;;;;;;;;;;4985117;28;20368;-59
2022/03/01 02:47:57;;;;;;;19.20;10.80;;;;;;;;;;4994858;28;20095;-58
2022/03/01 02:50:22;;;;;;;18.27;11.27;;;;;;;;;;4991447;28;20102;-58
2022/03/01 02:52:47;;;;;;;17.37;10.53;;;;;;;;;;4990734;28;20193;-55
2022/03/01 02:55:13;;;;;;;18.27;10.87;;;;;;;;;;5010893;28;20110;-57
2022/03/01 02:57:38;;;;;;;18.25;10.40;;;;;;;;;;5009513;28;20129;-55
2022/03/01 03:00:05;;;;;;;17.85;10.35;;;;;;;;;;5009751;28;20164;-53
2022/03/01 03:02:30;;;;;;;17.85;10.93;;;;;;;;;;4993782;28;20509;-55
2022/03/01 03:04:55;;;;;;;17.53;10.20;;;;;;;;;;5011599;28;20075;-55
2022/03/01 03:07:20;;;;;;;17.47;11.00;;;;;;;;;;5010671;28;20141;-55
2022/03/01 03:09:46;;;;;;;17.70;10.80;;;;;;;;;;5011353;28;20140;-57
2022/03/01 03:12:11;;;;;;;17.73;10.00;;;;;;;;;;5007506;28;20168;-55
2022/03/01 03:14:36;;;;;;;15.90;10.50;;;;;;;;;;4999900;28;20098;-55
2022/03/01 03:17:01;;;;;;;16.93;10.57;;;;;;;;;;5007992;28;20070;-54
2022/03/01 03:19:27;;;;;;;17.95;10.15;;;;;;;;;;4999172;28;20117;-58
2022/03/01 03:21:52;;;;;;;18.43;10.50;;;;;;;;;;5013075;28;20116;-54
2022/03/01 03:24:17;;;;;;;20.30;10.30;;;;;;;;;;5007514;28;20101;-55
2022/03/01 03:26:43;;;;;;;16.58;9.50;;;;;;;;;;5007531;28;20758;-54
2022/03/01 03:29:08;;;;;;;18.43;10.97;;;;;;;;;;4997508;28;20114;-58
2022/03/01 03:31:36;;;;;;;15.88;10.02;;;;;;;;;;5010687;28;20574;-53
2022/03/01 03:34:02;;;;;;;15.15;9.38;;;;;;;;;;5007592;28;20554;-57
2022/03/01 03:36:27;;;;;;;18.17;10.00;;;;;;;;;;5007057;28;20068;-55
2022/03/01 03:38:52;;;;;;;18.83;9.80;;;;;;;;;;5007194;28;20157;-53
2022/03/01 03:41:18;;;;;;;16.33;9.80;;;;;;;;;;5016125;28;20336;-54
2022/03/01 03:43:43;;;;;;;16.90;9.80;;;;;;;;;;5004653;28;20530;-57
2022/03/01 03:46:08;;;;;;;16.63;9.67;;;;;;;;;;5006756;28;20129;-54
2022/03/01 03:48:33;;;;;;;17.57;10.37;;;;;;;;;;5009229;28;20415;-55
2022/03/01 03:50:58;;;;;;;19.00;9.93;;;;;;;;;;5017178;28;20103;-53
2022/03/01 03:53:24;;;;;;;16.83;9.93;;;;;;;;;;5002180;28;20158;-57
2022/03/01 03:55:49;;;;;;;18.17;9.87;;;;;;;;;;5006909;28;20489;-57
2022/03/01 03:58:14;;;;;;;16.20;9.80;;;;;;;;;;5006953;28;20564;-56
2022/03/01 04:00:39;;;;;;;17.38;9.85;;;;;;;;;;5022050;28;20171;-55
2022/03/01 04:03:04;;;;;;;15.53;9.03;;;;;;;;;;5015634;28;20096;-54
2022/03/01 04:05:30;;;;;;;17.83;9.20;;;;;;;;;;5004778;28;20171;-56
2022/03/01 04:07:55;;;;;;;14.47;9.27;;;;;;;;;;4998556;28;20145;-56
2022/03/01 04:10:21;;;;;;;15.73;9.45;;;;;;;;;;5004043;28;20118;-57
2022/03/01 04:12:46;;;;;;;15.93;9.03;;;;;;;;;;5007639;28;20084;-56
2022/03/01 04:15:11;;;;;;;15.40;8.97;;;;;;;;;;5008335;28;20855;-54
2022/03/01 04:17:36;;;;;;;16.35;9.27;;;;;;;;;;5001182;28;20326;-55
2022/03/01 04:20:03;;;;;;;16.90;9.57;;;;;;;;;;5003595;28;20645;-57
2022/03/01 04:22:29;;;;;;;16.10;9.40;;;;;;;;;;5012899;28;20215;-55
2022/03/01 04:24:54;;;;;;;15.60;8.82;;;;;;;;;;5000329;28;20085;-54
2022/03/01 04:27:19;;;;;;;16.47;9.73;;;;;;;;;;5006519;28;20606;-57
2022/03/01 04:29:45;;;;;;;16.47;9.73;;;;;;;;;;5003484;28;20555;-57
2022/03/01 04:32:10;;;;;;;13.73;8.47;;;;;;;;;;5003058;28;20110;-55
2022/03/01 04:34:36;;;;;;;16.75;8.25;;;;;;;;;;5003518;28;20749;-57
2022/03/01 04:37:01;;;;;;;15.23;9.05;;;;;;;;;;5017675;28;20298;-57
2022/03/01 04:39:26;;;;;;;15.85;9.18;;;;;;;;;;5006779;28;20102;-52
2022/03/01 04:41:51;;;;;;;16.10;9.37;;;;;;;;;;5011656;28;20082;-55
2022/03/01 04:44:17;;;;;;;14.47;8.90;;;;;;;;;;5001440;28;20404;-55
2022/03/01 04:46:42;;;;;;;14.13;8.37;;;;;;;;;;5012516;28;20224;-56
2022/03/01 04:49:07;;;;;;;16.10;8.87;;;;;;;;;;4997365;28;20450;-56
2022/03/01 04:51:32;;;;;;;16.50;9.07;;;;;;;;;;5009332;28;20102;-54
2022/03/01 04:53:58;;;;;;;16.10;9.00;;;;;;;;;;4999647;28;20070;-56
2022/03/01 04:56:24;;;;;;;13.30;7.93;;;;;;;;;;4993906;28;20132;-58
2022/03/01 04:58:49;;;;;;;16.88;9.25;;;;;;;;;;4998448;28;20129;-58
2022/03/01 05:01:15;;;;;;;14.67;8.90;;;;;;;;;;5000742;28;20361;-59
2022/03/01 05:03:40;;;;;;;15.73;9.03;;;;;;;;;;5001434;28;20121;-58
2022/03/01 05:06:05;;;;;;;15.57;8.20;;;;;;;;;;5006437;28;20098;-55
2022/03/01 05:08:30;;;;;;;16.53;9.27;;;;;;;;;;5002976;28;20108;-55
2022/03/01 05:10:56;;;;;;;14.90;8.43;;;;;;;;;;5002026;28;20117;-54
2022/03/01 05:13:21;;;;;;;13.45;8.35;;;;;;;;;;5003546;28;20066;-57
2022/03/01 05:15:47;;;;;;;16.57;8.97;;;;;;;;;;5002226;28;20480;-57
2022/03/01 05:18:12;;;;;;;15.47;8.67;;;;;;;;;;5008967;28;20070;-59
2022/03/01 05:20:37;;;;;;;14.23;8.77;;;;;;;;;;4993652;28;20505;-58
2022/03/01 05:23:03;;;;;;;16.27;8.43;;;;;;;;;;5002287;28;20114;-57
2022/03/01 05:25:28;;;;;;;14.52;7.97;;;;;;;;;;5002828;28;20078;-59
2022/03/01 05:27:53;;;;;;;13.67;7.87;;;;;;;;;;5005593;28;20550;-58
2022/03/01 05:30:19;;;;;;;13.38;8.30;;;;;;;;;;5002052;28;20110;-58
2022/03/01 05:32:46;;;;;;;17.77;8.82;;;;;;;;;;5003118;28;20217;-57
2022/03/01 05:35:13;;;;;;;14.88;8.43;;;;;;;;;;5021457;28;20117;-60
2022/03/01 05:37:38;;;;;;;14.70;8.80;;;;;;;;;;5003970;28;20063;-58
2022/03/01 05:40:04;;;;;;;13.65;8.50;;;;;;;;;;5001878;28;20784;-58
2022/03/01 05:42:29;;;;;;;14.50;8.50;;;;;;;;;;5010176;28;20392;-60
2022/03/01 05:44:55;;;;;;;13.33;8.10;;;;;;;;;;5002359;28;20078;-58
2022/03/01 05:47:21;;;;;;;17.58;8.43;;;;;;;;;;5005157;28;20180;-58
2022/03/01 05:49:46;;;;;;;13.95;8.02;;;;;;;;;;4996572;28;20156;-60
2022/03/01 05:52:11;;;;;;;13.97;8.37;;;;;;;;;;5002238;28;20113;-58
2022/03/01 05:54:36;;;;;;;13.83;8.27;;;;;;;;;;4990065;28;20334;-56
2022/03/01 05:57:02;;;;;;;13.37;7.30;;;;;;;;;;4997133;28;20472;-58
2022/03/01 05:59:27;;;;;;;16.00;8.60;;;;;;;;;;5009468;28;20102;-58
2022/03/01 06:01:52;;;;;;;13.60;8.37;;;;;;;;;;5002391;28;20087;-58
2022/03/01 06:04:17;;;;;;;13.73;8.20;;;;;;;;;;5002316;28;20106;-59
2022/03/01 06:06:43;;;;;;;14.27;8.10;;;;;;;;;;5001935;28;20185;-58
2022/03/01 06:09:08;;;;;;;12.90;7.90;;;;;;;;;;4995825;28;20077;-56
2022/03/01 06:11:33;;;;;;;12.80;7.57;;;;;;;;;;5000276;28;20098;-58
2022/03/01 06:13:58;;;;;;;12.80;7.40;;;;;;;;;;5001735;28;20090;-56
2022/03/01 06:16:24;;;;;;;13.33;7.33;;;;;;;;;;4995284;28;20349;-56
2022/03/01 06:18:49;;;;;;;12.47;7.40;;;;;;;;;;4997087;28;20496;-60
2022/03/01 06:21:14;;;;;;;13.70;7.83;;;;;;;;;;5001530;28;20086;-58
2022/03/01 06:23:39;;;;;;;16.40;8.63;;;;;;;;;;5000536;28;20145;-58
2022/03/01 06:26:04;;;;;;;18.93;11.33;;;;;;;;;;4996873;28;20357;-59
2022/03/01 06:28:30;;;;;;;23.03;12.53;;;;;;;;;;5001235;28;20551;-59
2022/03/01 06:30:55;;;;;;;21.98;13.80;;;;;;;;;;4999453;28;20448;-57
2022/03/01 06:33:20;;;;;;;19.90;12.47;;;;;;;;;;5001148;28;20116;-58
2022/03/01 06:35:46;;;;;;;18.75;12.10;;;;;;;;;;4999625;28;20107;-57
2022/03/01 06:38:11;;;;;;;18.43;12.03;;;;;;;;;;5008802;28;20277;-59
2022/03/01 06:40:36;;;;;;;18.33;11.50;;;;;;;;;;5000671;28;20067;-59
2022/03/01 06:43:01;;;;;;;18.37;11.53;;;;;;;;;;5014307;28;20116;-57
2022/03/01 06:45:27;;;;;;;18.50;11.82;;;;;;;;;;5002205;28;20463;-56
2022/03/01 06:47:52;;;;;;;19.37;12.63;;;;;;;;;;5000901;28;20460;-59
2022/03/01 06:50:17;;;;;;;22.17;12.70;;;;;;;;;;5002352;28;20323;-58
2022/03/01 06:52:42;;;;;;;24.33;13.60;;;;;;;;;;5003351;28;20789;-56
2022/03/01 06:55:08;;;;;;;22.80;15.07;;;;;;;;;;4998991;28;20185;-57
2022/03/01 06:57:33;;;;;;;21.83;13.73;;;;;;;;;;5011074;28;20092;-57
2022/03/01 06:59:59;;;;;;;26.10;15.77;;;;;;;;;;4997146;28;20201;-60
2022/03/01 07:02:26;;;;;;;26.27;15.23;;;;;;;;;;5000566;28;20070;-59
2022/03/01 07:04:51;;;;;;;27.35;18.05;;;;;;;;;;5001367;28;20133;-61
2022/03/01 07:07:17;;;;;;;28.30;17.63;;;;;;;;;;5002071;28;20114;-60
2022/03/01 07:09:42;;;;;;;29.37;17.53;;;;;;;;;;5000429;28;20178;-59
2022/03/01 07:12:07;;;;;;;35.77;19.73;;;;;;;;;;5009045;28;20098;-58
2022/03/01 07:14:33;;;;;;;30.85;20.63;;;;;;;;;;4998186;28;20098;-58
2022/03/01 07:16:58;;;;;;;28.03;18.43;;;;;;;;;;5000929;28;20648;-59
2022/03/01 07:19:23;;;;;;;27.90;17.47;;;;;;;;;;4997400;28;20141;-58
2022/03/01 07:21:48;;;;;;;31.53;20.73;;;;;;;;;;4996521;28;20302;-58
2022/03/01 07:24:13;;;;;;;29.53;19.97;;;;;;;;;;5000881;28;20490;-58
2022/03/01 07:26:39;;;;;;;33.23;22.43;;;;;;;;;;4997672;28;20122;-58
2022/03/01 07:29:04;;;;;;;33.40;22.60;;;;;;;;;;5006402;28;20081;-60
2022/03/01 07:31:29;;;;;;;28.53;19.53;;;;;;;;;;5016763;28;20554;-57
2022/03/01 07:33:54;;;;;;;29.83;20.88;;;;;;;;;;5006848;28;20410;-58
2022/03/01 07:36:20;;;;;;;36.10;24.13;;;;;;;;;;5010949;28;20184;-58
2022/03/01 07:38:45;;;;;;;33.03;22.87;;;;;;;;;;5003142;28;20366;-60
2022/03/01 07:41:10;;;;;;;34.20;21.33;;;;;;;;;;5009034;28;20127;-59
2022/03/01 07:43:35;;;;;;;33.30;21.10;;;;;;;;;;5010407;28;20099;-59
2022/03/01 07:46:00;;;;;;;33.37;23.33;;;;;;;;;;5011839;28;20071;-57
2022/03/01 07:48:26;;;;;;;32.83;20.73;;;;;;;;;;5013580;28;20174;-60
2022/03/01 07:50:51;;;;;;;26.10;17.10;;;;;;;;;;5003913;28;20337;-60
2022/03/01 07:53:17;;;;;;;30.30;20.27;;;;;;;;;;4999150;28;20337;-58
2022/03/01 07:55:42;;;;;;;33.55;21.55;;;;;;;;;;5006240;28;20121;-59
2022/03/01 07:58:07;;;;;;;31.85;22.15;;;;;;;;;;5003961;28;20070;-59
2022/03/01 08:00:32;;;;;;;27.43;17.53;;;;;;;;;;5003856;28;20086;-58
2022/03/01 08:02:58;;;;;;;25.73;17.57;;;;;;;;;;4998246;28;20118;-59
2022/03/01 08:05:23;;;;;;;24.83;17.83;;;;;;;;;;5003959;28;20325;-61
2022/03/01 08:07:48;;;;;;;28.30;20.83;;;;;;;;;;5003394;28;20562;-59
2022/03/01 08:10:14;;;;;;;27.15;17.40;;;;;;;;;;5012499;28;20092;-58
2022/03/01 08:12:39;;;;;;;32.13;21.37;;;;;;;;;;5015017;28;20093;-60
2022/03/01 08:15:04;;;;;;;31.27;18.67;;;;;;;;;;5009131;28;20192;-57
2022/03/01 08:17:30;;;;;;;31.00;21.40;;;;;;;;;;5008640;28;20097;-55
2022/03/01 08:19:55;;;;;;;31.57;22.17;;;;;;;;;;5001504;28;20189;-57
2022/03/01 08:22:20;;;;;;;32.30;22.20;;;;;;;;;;5010152;28;20443;-56
2022/03/01 08:24:45;;;;;;;28.60;19.40;;;;;;;;;;4998854;28;20075;-55
2022/03/01 08:27:10;;;;;;;32.80;21.23;;;;;;;;;;5002147;28;20859;-55
2022/03/01 08:29:36;;;;;;;25.13;15.87;;;;;;;;;;4998959;28;20590;-57
2022/03/01 08:32:01;;;;;;;42.47;29.53;;;;;;;;;;5004122;28;20110;-56
2022/03/01 08:34:26;;;;;;;39.60;28.30;;;;;;;;;;4995416;28;20386;-55
2022/03/01 08:36:51;;;;;;;39.13;27.00;;;;;;;;;;5002260;28;20506;-56
2022/03/01 08:39:17;;;;;;;40.87;29.23;;;;;;;;;;5003332;28;20451;-58
2022/03/01 08:41:42;;;;;;;36.63;26.00;;;;;;;;;;5002670;28;20078;-56
2022/03/01 08:44:07;;;;;;;38.00;26.90;;;;;;;;;;4996376;28;20102;-61
2022/03/01 08:46:32;;;;;;;39.80;25.83;;;;;;;;;;4988859;28;20214;-58
2022/03/01 08:48:58;;;;;;;39.57;28.27;;;;;;;;;;4992704;28;20070;-57
2022/03/01 08:51:23;;;;;;;39.80;28.77;;;;;;;;;;4996753;28;20269;-61
2022/03/01 08:53:49;;;;;;;45.85;31.05;;;;;;;;;;4993108;28;20355;-57
2022/03/01 08:56:15;;;;;;;37.50;25.92;;;;;;;;;;4991356;28;20410;-60
2022/03/01 08:58:41;;;;;;;39.25;26.00;;;;;;;;;;4995369;28;20512;-59
2022/03/01 09:01:06;;;;;;;33.65;22.27;;;;;;;;;;4995297;28;20094;-62
2022/03/01 09:03:33;;;;;;;34.30;22.58;;;;;;;;;;4995154;28;20129;-58
2022/03/01 09:05:58;;;;;;;41.05;29.65;;;;;;;;;;4996735;28;20535;-59
2022/03/01 09:08:23;;;;;;;40.73;26.83;;;;;;;;;;4991433;28;20222;-62
2022/03/01 09:10:48;;;;;;;35.77;25.53;;;;;;;;;;4987555;28;20150;-58
2022/03/01 09:13:13;;;;;;;35.30;24.57;;;;;;;;;;4984682;28;20329;-59
2022/03/01 09:15:39;;;;;;;39.30;28.23;;;;;;;;;;4995218;28;20118;-62
2022/03/01 09:18:05;;;;;;;38.60;26.97;;;;;;;;;;4996427;28;20145;-61
2022/03/01 09:20:30;;;;;;;33.17;22.85;;;;;;;;;;4996278;28;20468;-58
2022/03/01 09:22:56;;;;;;;32.00;20.23;;;;;;;;;;4995887;28;20141;-60
2022/03/01 09:25:21;;;;;;;34.78;23.52;;;;;;;;;;5005294;28;20111;-58
2022/03/01 09:27:47;;;;;;;30.67;23.40;;;;;;;;;;4996170;28;20125;-59
2022/03/01 09:30:12;;;;;;;35.93;25.37;;;;;;;;;;4996877;28;20113;-60
2022/03/01 09:32:37;;;;;;;39.13;26.58;;;;;;;;;;4996993;28;20074;-60
2022/03/01 09:35:03;;;;;;;27.30;18.93;;;;;;;;;;4999729;28;20094;-60
2022/03/01 09:37:31;;;;;;;40.05;28.65;;;;;;;;;;4993498;28;20285;-61
2022/03/01 09:39:57;;;;;;;38.67;27.77;;;;;;;;;;4997748;28;20100;-59
2022/03/01 09:42:22;;;;;;;40.47;28.83;;;;;;;;;;4995740;28;20457;-60
2022/03/01 09:44:47;;;;;;;29.35;19.75;;;;;;;;;;4991959;28;20078;-60
2022/03/01 09:47:12;;;;;;;30.80;18.27;;;;;;;;;;4989109;28;20122;-56
2022/03/01 09:49:38;;;;;;;42.80;29.63;;;;;;;;;;4996681;28;20079;-56
2022/03/01 09:52:03;;;;;;;54.13;38.03;;;;;;;;;;4997477;28;20194;-60
2022/03/01 09:54:28;;;;;;;47.03;32.10;;;;;;;;;;4979900;28;20074;-59
2022/03/01 09:56:53;;;;;;;47.90;34.53;;;;;;;;;;4995943;28;20340;-56
2022/03/01 09:59:19;;;;;;;49.23;33.93;;;;;;;;;;4996226;28;20097;-60
2022/03/01 10:01:50;;;;;;;39.45;28.95;;;;;;;;;;4997373;28;20483;-59
2022/03/01 10:04:15;;;;;;;40.33;27.90;;;;;;;;;;4992535;28;20196;-57
2022/03/01 10:06:42;;;;;;;53.47;38.77;;;;;;;;;;4992791;28;20110;-60
2022/03/01 10:09:15;;;;;;;47.28;32.67;;;;;;;;;;4997636;28;20081;-60
2022/03/01 10:11:40;;;;;;;45.38;32.00;;;;;;;;;;4985755;28;20102;-58
2022/03/01 10:14:05;;;;;;;47.40;34.93;;;;;;;;;;4981897;28;20535;-61
2022/03/01 10:16:41;;;;;;;52.43;36.97;;;;;;;;;;4993501;28;20117;-59
2022/03/01 10:19:11;;;;;;;51.95;35.85;;;;;;;;;;4992465;28;20380;-61
2022/03/01 10:21:36;;;;;;;48.30;36.45;;;;;;;;;;4989895;28;20087;-58
2022/03/01 10:24:01;;;;;;;43.77;32.40;;;;;;;;;;4997508;28;20213;-59
2022/03/01 10:26:27;;;;;;;44.83;31.55;;;;;;;;;;4998257;28;20248;-60
2022/03/01 10:28:53;;;;;;;49.22;35.70;;;;;;;;;;5003495;28;20344;-58
2022/03/01 10:31:19;;;;;;;42.17;32.03;;;;;;;;;;4995688;28;20107;-59
2022/03/01 10:34:03;;;;;;;30.75;20.42;;;;;;;;;;4995136;28;20139;-59
2022/03/01 10:36:29;;;;;;;40.65;31.35;;;;;;;;;;4980290;28;20110;-59
2022/03/01 10:38:55;;;;;;;35.08;24.40;;;;;;;;;;4996319;28;20456;-61
2022/03/01 10:41:27;;;;;;;33.53;24.70;;;;;;;;;;4982406;28;20087;-56
2022/03/01 10:43:53;;;;;;;31.80;23.02;;;;;;;;;;4993092;28;20136;-59
2022/03/01 10:46:19;;;;;;;45.97;35.55;;;;;;;;;;4995861;28;20080;-60
2022/03/01 10:48:44;;;;;;;33.60;24.60;;;;;;;;;;4991291;28;20582;-59
2022/03/01 10:51:09;;;;;;;29.00;18.93;;;;;;;;;;4989105;28;20629;-60
2022/03/01 10:53:35;;;;;;;40.10;29.50;;;;;;;;;;4998609;28;20124;-59
2022/03/01 10:56:05;;;;;;;45.17;32.72;;;;;;;;;;4996039;28;20132;-59
2022/03/01 10:58:31;;;;;;;35.17;24.55;;;;;;;;;;4983622;28;20438;-60
2022/03/01 11:00:56;;;;;;;32.78;22.92;;;;;;;;;;4981087;28;20421;-60
2022/03/01 11:03:22;;;;;;;33.90;23.70;;;;;;;;;;4992198;28;20092;-59
2022/03/01 11:05:47;;;;;;;47.58;33.30;;;;;;;;;;5002475;28;20077;-60
2022/03/01 11:08:12;;;;;;;34.50;25.07;;;;;;;;;;5005717;28;20110;-58
2022/03/01 11:10:38;;;;;;;31.43;22.23;;;;;;;;;;4999300;28;20578;-60
2022/03/01 11:13:04;;;;;;;50.50;35.30;;;;;;;;;;4997651;28;20127;-61
2022/03/01 11:15:47;;;;;;;40.47;29.50;;;;;;;;;;5001781;28;20104;-57
2022/03/01 11:18:18;;;;;;;13.07;8.05;;;;;;;;;;4988778;28;20072;-57
2022/03/01 11:20:44;;;;;;;43.33;30.98;;;;;;;;;;4998250;28;20108;-56
2022/03/01 11:23:10;;;;;;;32.72;24.27;;;;;;;;;;5000966;28;20148;-55
2022/03/01 11:25:37;;;;;;;48.13;36.20;;;;;;;;;;4999188;28;20066;-54
2022/03/01 11:28:05;;;;;;;46.20;33.55;;;;;;;;;;4983876;28;20113;-56
2022/03/01 11:30:34;;;;;;;39.00;27.80;;;;;;;;;;5009626;28;20513;-58
2022/03/01 11:32:59;;;;;;;23.05;16.88;;;;;;;;;;4998213;28;20069;-59
2022/03/01 11:35:25;;;;;;;39.60;29.23;;;;;;;;;;4997970;28;20674;-58
2022/03/01 11:38:07;;;;;;;40.03;29.60;;;;;;;;;;5003976;28;20065;-58
2022/03/01 11:40:33;;;;;;;30.38;21.65;;;;;;;;;;4987004;28;20105;-60
2022/03/01 11:43:10;;;;;;;40.75;28.45;;;;;;;;;;5000507;28;20109;-59
2022/03/01 11:45:36;;;;;;;56.33;39.55;;;;;;;;;;5000105;28;20081;-58
2022/03/01 11:48:05;;;;;;;31.15;21.85;;;;;;;;;;4999541;28;20361;-60
2022/03/01 11:50:30;;;;;;;32.13;23.52;;;;;;;;;;5006389;28;20184;-61
2022/03/01 11:53:03;;;;;;;27.88;19.63;;;;;;;;;;4998639;28;20144;-59
2022/03/01 11:55:39;;;;;;;28.23;17.55;;;;;;;;;;4992824;28;20105;-60
2022/03/01 11:58:04;;;;;;;26.75;18.90;;;;;;;;;;4991180;28;20522;-60
2022/03/01 12:00:30;;;;;;;14.40;8.17;;;;;;;;;;5002093;28;20100;-59
2022/03/01 12:02:57;;;;;;;57.58;41.20;;;;;;;;;;5006092;28;20092;-60
2022/03/01 12:05:23;;;;;;;18.55;12.93;;;;;;;;;;4993155;28;20073;-59
2022/03/01 12:07:52;;;;;;;31.77;22.73;;;;;;;;;;4989458;28;20107;-58
2022/03/01 12:10:24;;;;;;;12.77;8.90;;;;;;;;;;5003748;28;20073;-61
2022/03/01 12:12:52;;;;;;;11.63;7.35;;;;;;;;;;5004733;28;20429;-60
2022/03/01 12:15:27;;;;;;;11.10;7.50;;;;;;;;;;4995525;28;20164;-59
2022/03/01 12:17:52;;;;;;;16.25;10.52;;;;;;;;;;4988992;28;20184;-59
2022/03/01 12:20:18;;;;;;;12.53;7.37;;;;;;;;;;4999396;28;20200;-59
2022/03/01 12:22:53;;;;;;;12.02;8.65;;;;;;;;;;4996357;28;20111;-61
2022/03/01 12:25:18;;;;;;;36.78;25.52;;;;;;;;;;4997650;28;20528;-58
2022/03/01 12:27:44;;;;;;;28.20;20.27;;;;;;;;;;4991329;28;20312;-60
2022/03/01 12:30:10;;;;;;;10.90;7.30;;;;;;;;;;4994908;28;20106;-59
2022/03/01 12:32:35;;;;;;;17.10;10.88;;;;;;;;;;4997375;28;20491;-60
2022/03/01 12:35:00;;;;;;;35.43;26.77;;;;;;;;;;4998934;28;20117;-59
2022/03/01 12:37:26;;;;;;;12.73;8.13;;;;;;;;;;4993962;28;20317;-58
2022/03/01 12:39:52;;;;;;;40.33;29.52;;;;;;;;;;4996114;28;20133;-59
2022/03/01 12:42:21;;;;;;;33.10;22.90;;;;;;;;;;5008201;28;20149;-57
2022/03/01 12:44:46;;;;;;;19.67;15.35;;;;;;;;;;5010002;28;20067;-60
2022/03/01 12:47:11;;;;;;;18.85;13.23;;;;;;;;;;4998390;28;20382;-70
2022/03/01 12:49:37;;;;;;;53.17;39.17;;;;;;;;;;4994324;28;20514;-70
2022/03/01 12:52:02;;;;;;;25.42;18.38;;;;;;;;;;5001421;28;20077;-66
2022/03/01 12:54:28;;;;;;;48.83;36.28;;;;;;;;;;4997337;28;20190;-68
2022/03/01 12:56:54;;;;;;;52.92;34.70;;;;;;;;;;5008034;28;20057;-68
2022/03/01 12:59:20;;;;;;;46.60;33.78;;;;;;;;;;4990982;28;20158;-68
2022/03/01 13:01:49;;;;;;;61.10;41.00;;;;;;;;;;4997974;28;20096;-69
2022/03/01 13:04:14;;;;;;;22.23;15.45;;;;;;;;;;4998059;28;20144;-64
2022/03/01 13:06:40;;;;;;;22.47;14.00;;;;;;;;;;5002506;28;20079;-65
2022/03/01 13:09:05;;;;;;;27.80;19.75;;;;;;;;;;4998371;28;20685;-66
2022/03/01 13:11:30;;;;;;;11.40;7.30;;;;;;;;;;4992673;28;20123;-67
2022/03/01 13:13:56;;;;;;;13.80;7.83;;;;;;;;;;4997355;28;20326;-67
2022/03/01 13:16:25;;;;;;;14.15;10.00;;;;;;;;;;4986508;28;20564;-68
2022/03/01 13:18:51;;;;;;;16.70;12.05;;;;;;;;;;4987665;28;20074;-68
2022/03/01 13:21:33;;;;;;;23.88;18.30;;;;;;;;;;4998401;28;20038;-68
2022/03/01 13:23:58;;;;;;;37.63;26.38;;;;;;;;;;5004885;28;20140;-69
2022/03/01 13:26:24;;;;;;;10.82;7.47;;;;;;;;;;5010811;28;20097;-68
2022/03/01 13:28:49;;;;;;;15.13;9.25;;;;;;;;;;4985095;28;20021;-69
2022/03/01 13:31:27;;;;;;;22.90;15.00;;;;;;;;;;5006937;28;20034;-67
2022/03/01 13:33:53;;;;;;;21.02;15.23;;;;;;;;;;5004542;28;20485;-69
2022/03/01 13:36:18;;;;;;;18.23;12.93;;;;;;;;;;4990925;28;20053;-69
2022/03/01 13:38:43;;;;;;;8.67;6.07;;;;;;;;;;4993662;28;20030;-68
2022/03/01 13:41:08;;;;;;;8.73;6.47;;;;;;;;;;4996140;28;20061;-69
2022/03/01 13:43:34;;;;;;;10.65;7.55;;;;;;;;;;4996456;28;20461;-69
2022/03/01 13:46:00;;;;;;;12.33;10.10;;;;;;;;;;4998115;28;20030;-68
2022/03/01 13:48:26;;;;;;;9.15;6.75;;;;;;;;;;4996902;28;20793;-68
2022/03/01 13:50:51;;;;;;;11.88;9.43;;;;;;;;;;4988620;28;20053;-69
2022/03/01 13:53:17;;;;;;;9.20;6.63;;;;;;;;;;4993580;28;20479;-68
2022/03/01 13:55:43;;;;;;;10.43;6.45;;;;;;;;;;4997464;28;20037;-69
2022/03/01 13:58:15;;;;;;;10.65;6.78;;;;;;;;;;4994690;28;20022;-68
2022/03/01 14:00:42;;;;;;;23.33;16.85;;;;;;;;;;5003389;28;20030;-67
2022/03/01 14:03:07;;;;;;;;;;;;;;;;;;4997070;28;20060;-68
2022/03/01 14:05:33;;;;;;;8.68;6.72;;;;;;;;;;4995204;28;19937;-68
2022/03/01 14:08:03;;;;;;;11.13;6.73;;;;;;;;;;4997735;28;20251;-69
2022/03/01 14:10:28;;;;;;;17.02;12.65;;;;;;;;;;4996383;28;20648;-68
2022/03/01 14:13:06;;;;;;;25.15;17.75;;;;;;;;;;4995610;28;20060;-68